sensor_id;sensor_type;location;lat;lon;timestamp;temperature;humidity
71994;DHT22;59861;50.268;8.648;2023-02-26T00:05:13;16.20;52.50
71994;DHT22;59861;50.268;8.648;2023-02-26T00:07:40;16.20;52.50
71994;DHT22;59861;50.268;8.648;2023-02-26T00:10:08;16.20;52.40
71994;DHT22;59861;50.268;8.648;2023-02-26T00:12:36;16.10;52.30
71994;DHT22;59861;50.268;8.648;2023-02-26T00:15:03;16.10;52.40
71994;DHT22;59861;50.268;8.648;2023-02-26T00:17:36;16.10;52.40
71994;DHT22;59861;50.268;8.648;2023-02-26T00:20:01;16.10;52.30
71994;DHT22;59861;50.268;8.648;2023-02-26T00:22:28;16.10;52.20
71994;DHT22;59861;50.268;8.648;2023-02-26T00:24:56;16.10;52.20
71994;DHT22;59861;50.268;8.648;2023-02-26T00:27:22;16.10;52.30
71994;DHT22;59861;50.268;8.648;2023-02-26T00:29:49;16.10;52.20
71994;DHT22;59861;50.268;8.648;2023-02-26T00:32:16;16.10;52.10
71994;DHT22;59861;50.268;8.648;2023-02-26T00:34:47;16.10;52.10
71994;DHT22;59861;50.268;8.648;2023-02-26T00:42:13;16.10;52.00
71994;DHT22;59861;50.268;8.648;2023-02-26T00:44:40;16.10;51.90
71994;DHT22;59861;50.268;8.648;2023-02-26T00:47:19;16.10;52.00
71994;DHT22;59861;50.268;8.648;2023-02-26T00:52:31;16.10;51.90
71994;DHT22;59861;50.268;8.648;2023-02-26T00:54:56;16.10;52.00
71994;DHT22;59861;50.268;8.648;2023-02-26T00:57:23;16.10;52.00
71994;DHT22;59861;50.268;8.648;2023-02-26T00:59:50;16.10;52.10
71994;DHT22;59861;50.268;8.648;2023-02-26T01:02:16;16.10;52.00
71994;DHT22;59861;50.268;8.648;2023-02-26T01:04:43;16.10;52.00
71994;DHT22;59861;50.268;8.648;2023-02-26T01:07:11;16.10;52.00
71994;DHT22;59861;50.268;8.648;2023-02-26T01:09:38;16.10;52.00
71994;DHT22;59861;50.268;8.648;2023-02-26T01:12:06;16.10;52.00
71994;DHT22;59861;50.268;8.648;2023-02-26T01:14:34;16.10;52.00
71994;DHT22;59861;50.268;8.648;2023-02-26T01:17:02;16.10;52.00
71994;DHT22;59861;50.268;8.648;2023-02-26T01:19:40;16.10;52.00
71994;DHT22;59861;50.268;8.648;2023-02-26T01:22:09;16.00;52.00
71994;DHT22;59861;50.268;8.648;2023-02-26T01:24:35;16.00;52.00
71994;DHT22;59861;50.268;8.648;2023-02-26T01:27:02;16.00;52.00
71994;DHT22;59861;50.268;8.648;2023-02-26T01:29:29;16.00;52.00
71994;DHT22;59861;50.268;8.648;2023-02-26T01:31:59;16.00;52.00
71994;DHT22;59861;50.268;8.648;2023-02-26T01:34:26;16.00;52.10
71994;DHT22;59861;50.268;8.648;2023-02-26T01:36:59;16.00;52.00
71994;DHT22;59861;50.268;8.648;2023-02-26T01:39:27;16.00;52.10
71994;DHT22;59861;50.268;8.648;2023-02-26T01:44:58;16.00;52.10
71994;DHT22;59861;50.268;8.648;2023-02-26T01:49:37;16.00;52.00
71994;DHT22;59861;50.268;8.648;2023-02-26T01:52:04;16.00;52.00
71994;DHT22;59861;50.268;8.648;2023-02-26T01:54:32;16.00;52.20
71994;DHT22;59861;50.268;8.648;2023-02-26T01:57:04;16.00;52.70
71994;DHT22;59861;50.268;8.648;2023-02-26T01:59:31;15.90;52.00
71994;DHT22;59861;50.268;8.648;2023-02-26T02:01:59;15.90;52.00
71994;DHT22;59861;50.268;8.648;2023-02-26T02:04:28;15.90;52.00
71994;DHT22;59861;50.268;8.648;2023-02-26T02:06:56;15.90;52.00
71994;DHT22;59861;50.268;8.648;2023-02-26T02:09:23;15.90;52.00
71994;DHT22;59861;50.268;8.648;2023-02-26T02:11:58;15.90;52.00
71994;DHT22;59861;50.268;8.648;2023-02-26T02:22:32;15.80;52.10
71994;DHT22;59861;50.268;8.648;2023-02-26T02:32:56;15.80;52.10
71994;DHT22;59861;50.268;8.648;2023-02-26T02:35:57;15.80;52.10
71994;DHT22;59861;50.268;8.648;2023-02-26T02:40:43;15.80;52.10
71994;DHT22;59861;50.268;8.648;2023-02-26T02:43:18;15.80;52.10
71994;DHT22;59861;50.268;8.648;2023-02-26T02:46:31;15.80;52.20
71994;DHT22;59861;50.268;8.648;2023-02-26T02:48:16;15.80;52.20
71994;DHT22;59861;50.268;8.648;2023-02-26T02:50:46;15.80;52.10
71994;DHT22;59861;50.268;8.648;2023-02-26T02:53:20;15.80;52.20
71994;DHT22;59861;50.268;8.648;2023-02-26T02:58:22;15.80;52.20
71994;DHT22;59861;50.268;8.648;2023-02-26T03:00:50;15.80;52.10
71994;DHT22;59861;50.268;8.648;2023-02-26T03:05:49;15.80;52.40
71994;DHT22;59861;50.268;8.648;2023-02-26T03:08:17;15.80;52.20
71994;DHT22;59861;50.268;8.648;2023-02-26T03:10:45;15.80;52.40
71994;DHT22;59861;50.268;8.648;2023-02-26T03:13:16;15.70;52.70
71994;DHT22;59861;50.268;8.648;2023-02-26T03:18:39;15.60;53.00
71994;DHT22;59861;50.268;8.648;2023-02-26T03:21:03;15.60;53.10
71994;DHT22;59861;50.268;8.648;2023-02-26T03:23:32;15.60;53.10
71994;DHT22;59861;50.268;8.648;2023-02-26T03:28:47;15.60;53.10
71994;DHT22;59861;50.268;8.648;2023-02-26T03:31:16;15.60;53.10
71994;DHT22;59861;50.268;8.648;2023-02-26T03:33:59;15.60;53.20
71994;DHT22;59861;50.268;8.648;2023-02-26T03:38:58;15.60;53.10
71994;DHT22;59861;50.268;8.648;2023-02-26T03:41:31;15.60;53.20
71994;DHT22;59861;50.268;8.648;2023-02-26T03:44:07;15.60;53.10
71994;DHT22;59861;50.268;8.648;2023-02-26T03:46:40;15.60;53.90
71994;DHT22;59861;50.268;8.648;2023-02-26T03:49:04;15.60;53.10
71994;DHT22;59861;50.268;8.648;2023-02-26T03:51:30;15.60;53.20
71994;DHT22;59861;50.268;8.648;2023-02-26T03:55:01;15.60;53.10
71994;DHT22;59861;50.268;8.648;2023-02-26T03:56:37;15.50;53.10
71994;DHT22;59861;50.268;8.648;2023-02-26T03:59:04;15.60;53.10
71994;DHT22;59861;50.268;8.648;2023-02-26T04:01:38;15.50;53.10
71994;DHT22;59861;50.268;8.648;2023-02-26T04:04:11;15.60;53.20
71994;DHT22;59861;50.268;8.648;2023-02-26T04:06:28;15.60;53.20
71994;DHT22;59861;50.268;8.648;2023-02-26T04:08:55;15.50;53.10
71994;DHT22;59861;50.268;8.648;2023-02-26T04:11:22;15.50;53.00
71994;DHT22;59861;50.268;8.648;2023-02-26T04:13:50;15.50;53.20
71994;DHT22;59861;50.268;8.648;2023-02-26T04:16:17;15.50;53.20
71994;DHT22;59861;50.268;8.648;2023-02-26T04:18:44;15.50;53.20
71994;DHT22;59861;50.268;8.648;2023-02-26T04:21:16;15.50;53.10
71994;DHT22;59861;50.268;8.648;2023-02-26T04:23:39;15.50;53.20
71994;DHT22;59861;50.268;8.648;2023-02-26T04:26:06;15.50;53.10
71994;DHT22;59861;50.268;8.648;2023-02-26T04:28:32;15.50;53.00
71994;DHT22;59861;50.268;8.648;2023-02-26T04:31:01;15.60;53.00
71994;DHT22;59861;50.268;8.648;2023-02-26T04:33:28;15.60;53.00
71994;DHT22;59861;50.268;8.648;2023-02-26T04:35:55;15.60;52.90
71994;DHT22;59861;50.268;8.648;2023-02-26T04:38:21;15.50;52.90
71994;DHT22;59861;50.268;8.648;2023-02-26T04:40:49;15.60;52.70
71994;DHT22;59861;50.268;8.648;2023-02-26T04:43:16;15.60;52.70
71994;DHT22;59861;50.268;8.648;2023-02-26T04:45:46;15.60;52.70
71994;DHT22;59861;50.268;8.648;2023-02-26T04:48:14;15.60;52.60
71994;DHT22;59861;50.268;8.648;2023-02-26T04:50:41;15.60;52.60
71994;DHT22;59861;50.268;8.648;2023-02-26T04:53:08;15.60;52.50
71994;DHT22;59861;50.268;8.648;2023-02-26T04:55:35;15.60;52.50
71994;DHT22;59861;50.268;8.648;2023-02-26T04:58:02;15.60;52.50
71994;DHT22;59861;50.268;8.648;2023-02-26T05:00:29;15.60;52.70
71994;DHT22;59861;50.268;8.648;2023-02-26T05:02:55;15.60;52.70
71994;DHT22;59861;50.268;8.648;2023-02-26T05:05:22;15.60;52.70
71994;DHT22;59861;50.268;8.648;2023-02-26T05:07:49;15.60;53.30
71994;DHT22;59861;50.268;8.648;2023-02-26T05:10:18;15.60;52.50
71994;DHT22;59861;50.268;8.648;2023-02-26T05:12:45;15.60;52.40
71994;DHT22;59861;50.268;8.648;2023-02-26T05:15:12;15.60;52.40
71994;DHT22;59861;50.268;8.648;2023-02-26T05:17:38;15.60;52.40
71994;DHT22;59861;50.268;8.648;2023-02-26T05:20:05;15.60;52.40
71994;DHT22;59861;50.268;8.648;2023-02-26T05:22:34;15.60;52.40
71994;DHT22;59861;50.268;8.648;2023-02-26T05:25:01;15.60;52.40
71994;DHT22;59861;50.268;8.648;2023-02-26T05:27:29;15.60;52.40
71994;DHT22;59861;50.268;8.648;2023-02-26T05:29:56;15.50;52.30
71994;DHT22;59861;50.268;8.648;2023-02-26T05:32:23;15.50;52.30
71994;DHT22;59861;50.268;8.648;2023-02-26T05:34:50;15.50;52.30
71994;DHT22;59861;50.268;8.648;2023-02-26T05:37:17;15.50;52.30
71994;DHT22;59861;50.268;8.648;2023-02-26T05:39:43;15.50;52.30
71994;DHT22;59861;50.268;8.648;2023-02-26T05:42:10;15.50;52.20
71994;DHT22;59861;50.268;8.648;2023-02-26T05:44:37;15.50;52.10
71994;DHT22;59861;50.268;8.648;2023-02-26T05:47:04;15.50;52.10
71994;DHT22;59861;50.268;8.648;2023-02-26T05:49:31;15.50;52.00
71994;DHT22;59861;50.268;8.648;2023-02-26T05:51:57;15.50;52.80
71994;DHT22;59861;50.268;8.648;2023-02-26T05:54:24;15.50;52.00
71994;DHT22;59861;50.268;8.648;2023-02-26T05:56:51;15.50;51.90
71994;DHT22;59861;50.268;8.648;2023-02-26T05:59:18;15.60;51.90
71994;DHT22;59861;50.268;8.648;2023-02-26T06:01:44;15.50;51.90
71994;DHT22;59861;50.268;8.648;2023-02-26T06:04:11;15.60;51.80
71994;DHT22;59861;50.268;8.648;2023-02-26T06:06:38;15.50;51.80
71994;DHT22;59861;50.268;8.648;2023-02-26T06:09:05;15.50;51.70
71994;DHT22;59861;50.268;8.648;2023-02-26T06:11:32;15.60;51.80
71994;DHT22;59861;50.268;8.648;2023-02-26T06:13:59;15.50;51.20
71994;DHT22;59861;50.268;8.648;2023-02-26T06:16:26;15.50;51.70
71994;DHT22;59861;50.268;8.648;2023-02-26T06:18:53;15.60;51.70
71994;DHT22;59861;50.268;8.648;2023-02-26T06:21:20;15.50;51.80
71994;DHT22;59861;50.268;8.648;2023-02-26T06:23:46;15.50;51.60
71994;DHT22;59861;50.268;8.648;2023-02-26T06:26:13;15.50;51.70
71994;DHT22;59861;50.268;8.648;2023-02-26T06:28:40;15.50;51.60
71994;DHT22;59861;50.268;8.648;2023-02-26T06:31:07;15.50;51.60
71994;DHT22;59861;50.268;8.648;2023-02-26T06:33:34;15.50;51.60
71994;DHT22;59861;50.268;8.648;2023-02-26T06:36:00;15.50;51.60
71994;DHT22;59861;50.268;8.648;2023-02-26T06:38:28;15.50;51.60
71994;DHT22;59861;50.268;8.648;2023-02-26T06:40:55;15.50;51.60
71994;DHT22;59861;50.268;8.648;2023-02-26T06:43:21;15.50;51.90
71994;DHT22;59861;50.268;8.648;2023-02-26T06:45:48;15.40;52.20
71994;DHT22;59861;50.268;8.648;2023-02-26T06:48:15;15.40;52.50
71994;DHT22;59861;50.268;8.648;2023-02-26T06:50:42;15.40;52.70
71994;DHT22;59861;50.268;8.648;2023-02-26T06:53:09;15.40;52.80
71994;DHT22;59861;50.268;8.648;2023-02-26T06:55:40;15.30;52.80
71994;DHT22;59861;50.268;8.648;2023-02-26T06:58:04;15.30;52.80
71994;DHT22;59861;50.268;8.648;2023-02-26T07:00:31;15.40;52.90
71994;DHT22;59861;50.268;8.648;2023-02-26T07:02:58;15.30;52.90
71994;DHT22;59861;50.268;8.648;2023-02-26T07:05:24;15.30;52.90
71994;DHT22;59861;50.268;8.648;2023-02-26T07:07:51;15.30;52.90
71994;DHT22;59861;50.268;8.648;2023-02-26T07:10:18;15.30;52.90
71994;DHT22;59861;50.268;8.648;2023-02-26T07:12:46;15.30;52.90
71994;DHT22;59861;50.268;8.648;2023-02-26T07:15:13;15.40;52.90
71994;DHT22;59861;50.268;8.648;2023-02-26T07:17:40;15.30;52.90
71994;DHT22;59861;50.268;8.648;2023-02-26T07:20:07;15.30;52.90
71994;DHT22;59861;50.268;8.648;2023-02-26T07:22:39;15.40;53.00
71994;DHT22;59861;50.268;8.648;2023-02-26T07:25:03;15.30;52.90
71994;DHT22;59861;50.268;8.648;2023-02-26T07:27:30;15.30;52.90
71994;DHT22;59861;50.268;8.648;2023-02-26T07:29:58;15.40;52.90
71994;DHT22;59861;50.268;8.648;2023-02-26T07:32:25;15.30;52.90
71994;DHT22;59861;50.268;8.648;2023-02-26T07:34:52;15.40;52.90
71994;DHT22;59861;50.268;8.648;2023-02-26T07:40:05;15.40;52.90
71994;DHT22;59861;50.268;8.648;2023-02-26T07:42:32;15.40;53.10
71994;DHT22;59861;50.268;8.648;2023-02-26T07:44:59;15.40;52.90
71994;DHT22;59861;50.268;8.648;2023-02-26T07:47:26;15.30;52.90
71994;DHT22;59861;50.268;8.648;2023-02-26T07:49:54;15.40;52.90
71994;DHT22;59861;50.268;8.648;2023-02-26T07:52:21;15.40;53.00
71994;DHT22;59861;50.268;8.648;2023-02-26T07:54:48;15.30;52.90
71994;DHT22;59861;50.268;8.648;2023-02-26T07:57:14;15.30;52.90
71994;DHT22;59861;50.268;8.648;2023-02-26T07:59:41;15.40;52.90
71994;DHT22;59861;50.268;8.648;2023-02-26T08:02:09;15.30;52.90
71994;DHT22;59861;50.268;8.648;2023-02-26T08:04:35;15.30;52.90
71994;DHT22;59861;50.268;8.648;2023-02-26T08:07:02;15.40;52.90
71994;DHT22;59861;50.268;8.648;2023-02-26T08:09:29;15.40;52.90
71994;DHT22;59861;50.268;8.648;2023-02-26T08:11:56;15.40;53.00
71994;DHT22;59861;50.268;8.648;2023-02-26T08:14:23;15.40;52.90
71994;DHT22;59861;50.268;8.648;2023-02-26T08:16:49;15.40;52.80
71994;DHT22;59861;50.268;8.648;2023-02-26T08:19:18;15.40;52.80
71994;DHT22;59861;50.268;8.648;2023-02-26T08:21:44;15.50;52.90
71994;DHT22;59861;50.268;8.648;2023-02-26T08:24:11;15.50;52.80
71994;DHT22;59861;50.268;8.648;2023-02-26T08:26:38;15.50;52.80
71994;DHT22;59861;50.268;8.648;2023-02-26T08:29:05;13.10;37.50
71994;DHT22;59861;50.268;8.648;2023-02-26T08:34:00;11.20;39.20
71994;DHT22;59861;50.268;8.648;2023-02-26T08:36:27;10.50;40.50
71994;DHT22;59861;50.268;8.648;2023-02-26T08:38:54;10.00;40.80
71994;DHT22;59861;50.268;8.648;2023-02-26T08:41:20;10.20;42.60
71994;DHT22;59861;50.268;8.648;2023-02-26T08:43:47;11.50;68.20
71994;DHT22;59861;50.268;8.648;2023-02-26T08:46:14;12.30;48.00
71994;DHT22;59861;50.268;8.648;2023-02-26T08:51:07;13.40;48.60
71994;DHT22;59861;50.268;8.648;2023-02-26T08:53:35;13.10;41.10
71994;DHT22;59861;50.268;8.648;2023-02-26T08:56:01;13.20;44.40
71994;DHT22;59861;50.268;8.648;2023-02-26T08:58:28;13.60;48.50
71994;DHT22;59861;50.268;8.648;2023-02-26T09:00:55;14.00;49.10
71994;DHT22;59861;50.268;8.648;2023-02-26T09:03:22;14.20;49.40
71994;DHT22;59861;50.268;8.648;2023-02-26T09:05:49;14.40;49.90
71994;DHT22;59861;50.268;8.648;2023-02-26T09:08:16;14.60;50.00
71994;DHT22;59861;50.268;8.648;2023-02-26T09:10:45;14.80;50.10
71994;DHT22;59861;50.268;8.648;2023-02-26T09:13:12;14.90;50.20
71994;DHT22;59861;50.268;8.648;2023-02-26T09:15:39;15.00;50.30
71994;DHT22;59861;50.268;8.648;2023-02-26T09:18:06;15.20;50.50
71994;DHT22;59861;50.268;8.648;2023-02-26T09:20:35;15.40;60.10
71994;DHT22;59861;50.268;8.648;2023-02-26T09:23:02;15.50;61.60
71994;DHT22;59861;50.268;8.648;2023-02-26T09:25:29;15.60;66.60
71994;DHT22;59861;50.268;8.648;2023-02-26T09:30:22;15.60;50.10
71994;DHT22;59861;50.268;8.648;2023-02-26T09:32:49;15.70;50.70
71994;DHT22;59861;50.268;8.648;2023-02-26T09:35:16;15.80;50.80
71994;DHT22;59861;50.268;8.648;2023-02-26T09:37:43;15.90;51.60
71994;DHT22;59861;50.268;8.648;2023-02-26T09:40:24;16.10;50.90
71994;DHT22;59861;50.268;8.648;2023-02-26T09:45:28;16.40;50.90
71994;DHT22;59861;50.268;8.648;2023-02-26T09:47:50;16.60;50.90
71994;DHT22;59861;50.268;8.648;2023-02-26T09:50:23;16.60;51.10
71994;DHT22;59861;50.268;8.648;2023-02-26T09:55:23;16.70;51.60
71994;DHT22;59861;50.268;8.648;2023-02-26T09:57:47;16.70;51.70
71994;DHT22;59861;50.268;8.648;2023-02-26T10:00:21;16.70;51.90
71994;DHT22;59861;50.268;8.648;2023-02-26T10:02:50;16.70;51.90
71994;DHT22;59861;50.268;8.648;2023-02-26T10:05:16;16.80;52.00
71994;DHT22;59861;50.268;8.648;2023-02-26T10:07:49;16.80;52.10
71994;DHT22;59861;50.268;8.648;2023-02-26T10:12:49;16.90;52.30
71994;DHT22;59861;50.268;8.648;2023-02-26T10:15:27;16.80;52.40
71994;DHT22;59861;50.268;8.648;2023-02-26T10:20:33;16.80;52.60
71994;DHT22;59861;50.268;8.648;2023-02-26T10:25:46;16.60;52.20
71994;DHT22;59861;50.268;8.648;2023-02-26T10:30:48;16.50;52.20
71994;DHT22;59861;50.268;8.648;2023-02-26T10:33:21;16.50;52.20
71994;DHT22;59861;50.268;8.648;2023-02-26T10:35:55;16.50;52.20
71994;DHT22;59861;50.268;8.648;2023-02-26T10:38:24;16.50;52.20
71994;DHT22;59861;50.268;8.648;2023-02-26T10:41:12;16.50;52.20
71994;DHT22;59861;50.268;8.648;2023-02-26T10:43:41;16.50;52.10
71994;DHT22;59861;50.268;8.648;2023-02-26T10:51:27;16.50;52.10
71994;DHT22;59861;50.268;8.648;2023-02-26T10:53:57;16.50;52.10
71994;DHT22;59861;50.268;8.648;2023-02-26T10:56:22;16.60;52.10
71994;DHT22;59861;50.268;8.648;2023-02-26T10:58:50;16.60;52.10
71994;DHT22;59861;50.268;8.648;2023-02-26T11:01:18;16.60;52.00
71994;DHT22;59861;50.268;8.648;2023-02-26T11:03:46;16.60;52.10
71994;DHT22;59861;50.268;8.648;2023-02-26T11:06:18;16.60;52.00
71994;DHT22;59861;50.268;8.648;2023-02-26T11:08:42;16.60;52.10
71994;DHT22;59861;50.268;8.648;2023-02-26T11:11:10;16.60;52.10
71994;DHT22;59861;50.268;8.648;2023-02-26T11:13:37;16.70;52.10
71994;DHT22;59861;50.268;8.648;2023-02-26T11:16:10;16.70;52.30
71994;DHT22;59861;50.268;8.648;2023-02-26T11:18:49;16.70;52.20
71994;DHT22;59861;50.268;8.648;2023-02-26T11:21:22;16.60;52.10
71994;DHT22;59861;50.268;8.648;2023-02-26T11:23:44;16.60;52.10
71994;DHT22;59861;50.268;8.648;2023-02-26T11:26:15;16.60;52.20
71994;DHT22;59861;50.268;8.648;2023-02-26T11:28:46;16.60;52.10
71994;DHT22;59861;50.268;8.648;2023-02-26T11:31:17;16.60;52.00
71994;DHT22;59861;50.268;8.648;2023-02-26T11:33:44;16.60;52.20
71994;DHT22;59861;50.268;8.648;2023-02-26T11:36:13;16.60;52.20
71994;DHT22;59861;50.268;8.648;2023-02-26T11:38:43;16.60;52.20
71994;DHT22;59861;50.268;8.648;2023-02-26T11:41:10;16.60;52.20
71994;DHT22;59861;50.268;8.648;2023-02-26T11:43:42;16.50;52.10
71994;DHT22;59861;50.268;8.648;2023-02-26T11:46:09;16.60;52.10
71994;DHT22;59861;50.268;8.648;2023-02-26T11:48:39;16.60;52.20
71994;DHT22;59861;50.268;8.648;2023-02-26T11:51:06;16.60;52.30
71994;DHT22;59861;50.268;8.648;2023-02-26T11:53:34;16.60;52.50
71994;DHT22;59861;50.268;8.648;2023-02-26T11:56:07;16.60;52.40
71994;DHT22;59861;50.268;8.648;2023-02-26T11:58:33;16.60;52.40
71994;DHT22;59861;50.268;8.648;2023-02-26T12:00:58;16.50;52.40
71994;DHT22;59861;50.268;8.648;2023-02-26T12:03:27;16.60;52.40
71994;DHT22;59861;50.268;8.648;2023-02-26T12:05:55;16.60;52.30
71994;DHT22;59861;50.268;8.648;2023-02-26T12:13:39;16.60;53.10
71994;DHT22;59861;50.268;8.648;2023-02-26T12:18:56;16.60;52.40
71994;DHT22;59861;50.268;8.648;2023-02-26T12:26:54;16.60;52.50
71994;DHT22;59861;50.268;8.648;2023-02-26T12:29:22;16.60;52.40
71994;DHT22;59861;50.268;8.648;2023-02-26T12:34:36;16.50;52.50
71994;DHT22;59861;50.268;8.648;2023-02-26T12:50:06;16.60;52.80
71994;DHT22;59861;50.268;8.648;2023-02-26T12:55:13;16.50;52.50
71994;DHT22;59861;50.268;8.648;2023-02-26T13:00:29;16.50;52.40
71994;DHT22;59861;50.268;8.648;2023-02-26T13:05:39;16.50;52.40
71994;DHT22;59861;50.268;8.648;2023-02-26T13:08:00;16.50;52.20
71994;DHT22;59861;50.268;8.648;2023-02-26T13:12:58;16.40;52.10
71994;DHT22;59861;50.268;8.648;2023-02-26T13:20:33;13.30;38.20
71994;DHT22;59861;50.268;8.648;2023-02-26T13:23:10;14.00;46.80
71994;DHT22;59861;50.268;8.648;2023-02-26T13:25:35;14.80;49.00
71994;DHT22;59861;50.268;8.648;2023-02-26T13:28:03;15.20;48.90
71994;DHT22;59861;50.268;8.648;2023-02-26T13:30:31;15.50;48.90
71994;DHT22;59861;50.268;8.648;2023-02-26T13:32:58;15.70;48.90
71994;DHT22;59861;50.268;8.648;2023-02-26T13:35:30;15.80;49.10
71994;DHT22;59861;50.268;8.648;2023-02-26T13:37:57;15.90;49.50
71994;DHT22;59861;50.268;8.648;2023-02-26T13:40:28;15.90;49.60
71994;DHT22;59861;50.268;8.648;2023-02-26T13:45:44;16.00;50.00
71994;DHT22;59861;50.268;8.648;2023-02-26T13:48:12;16.00;50.20
71994;DHT22;59861;50.268;8.648;2023-02-26T13:50:43;16.00;50.40
71994;DHT22;59861;50.268;8.648;2023-02-26T13:55:56;16.00;50.30
71994;DHT22;59861;50.268;8.648;2023-02-26T14:00:58;16.00;51.20
71994;DHT22;59861;50.268;8.648;2023-02-26T14:11:23;16.10;50.60
71994;DHT22;59861;50.268;8.648;2023-02-26T14:13:34;16.10;51.10
71994;DHT22;59861;50.268;8.648;2023-02-26T14:18:31;16.20;51.00
71994;DHT22;59861;50.268;8.648;2023-02-26T14:23:43;16.10;51.80
71994;DHT22;59861;50.268;8.648;2023-02-26T14:26:12;16.10;52.10
71994;DHT22;59861;50.268;8.648;2023-02-26T14:28:44;16.10;52.30
71994;DHT22;59861;50.268;8.648;2023-02-26T14:36:50;16.10;52.60
71994;DHT22;59861;50.268;8.648;2023-02-26T14:38:54;16.00;52.60
71994;DHT22;59861;50.268;8.648;2023-02-26T14:41:27;16.10;52.60
71994;DHT22;59861;50.268;8.648;2023-02-26T14:43:56;16.10;52.70
71994;DHT22;59861;50.268;8.648;2023-02-26T14:46:22;16.10;52.80
71994;DHT22;59861;50.268;8.648;2023-02-26T14:53:48;16.10;53.10
71994;DHT22;59861;50.268;8.648;2023-02-26T15:04:12;16.10;53.20
71994;DHT22;59861;50.268;8.648;2023-02-26T15:06:41;16.10;53.30
71994;DHT22;59861;50.268;8.648;2023-02-26T15:09:09;16.10;53.30
71994;DHT22;59861;50.268;8.648;2023-02-26T15:14:22;16.10;53.60
71994;DHT22;59861;50.268;8.648;2023-02-26T15:16:53;16.10;53.60
71994;DHT22;59861;50.268;8.648;2023-02-26T15:19:21;16.10;53.50
71994;DHT22;59861;50.268;8.648;2023-02-26T15:24:26;15.80;45.70
71994;DHT22;59861;50.268;8.648;2023-02-26T15:26:56;15.70;52.90
71994;DHT22;59861;50.268;8.648;2023-02-26T15:29:26;15.90;53.30
71994;DHT22;59861;50.268;8.648;2023-02-26T15:31:57;16.00;53.00
71994;DHT22;59861;50.268;8.648;2023-02-26T15:34:21;16.00;53.00
71994;DHT22;59861;50.268;8.648;2023-02-26T15:36:49;16.10;52.90
71994;DHT22;59861;50.268;8.648;2023-02-26T15:39:17;16.20;52.90
71994;DHT22;59861;50.268;8.648;2023-02-26T15:41:47;16.30;53.00
71994;DHT22;59861;50.268;8.648;2023-02-26T15:44:23;16.30;53.00
71994;DHT22;59861;50.268;8.648;2023-02-26T15:46:46;16.40;53.30
71994;DHT22;59861;50.268;8.648;2023-02-26T15:49:18;16.50;53.50
71994;DHT22;59861;50.268;8.648;2023-02-26T15:51:42;16.50;53.40
71994;DHT22;59861;50.268;8.648;2023-02-26T15:54:14;16.60;53.50
71994;DHT22;59861;50.268;8.648;2023-02-26T15:56:39;16.60;53.60
71994;DHT22;59861;50.268;8.648;2023-02-26T15:59:12;16.60;53.60
71994;DHT22;59861;50.268;8.648;2023-02-26T16:01:42;16.70;54.20
71994;DHT22;59861;50.268;8.648;2023-02-26T16:04:12;16.70;53.60
71994;DHT22;59861;50.268;8.648;2023-02-26T16:06:41;16.70;53.70
71994;DHT22;59861;50.268;8.648;2023-02-26T16:09:14;16.70;53.90
71994;DHT22;59861;50.268;8.648;2023-02-26T16:11:37;16.80;53.90
71994;DHT22;59861;50.268;8.648;2023-02-26T16:14:06;16.80;54.10
71994;DHT22;59861;50.268;8.648;2023-02-26T16:16:38;16.80;54.10
71994;DHT22;59861;50.268;8.648;2023-02-26T16:19:02;16.80;54.10
71994;DHT22;59861;50.268;8.648;2023-02-26T16:21:35;16.80;54.00
71994;DHT22;59861;50.268;8.648;2023-02-26T16:24:04;16.80;54.10
71994;DHT22;59861;50.268;8.648;2023-02-26T16:26:38;16.90;54.20
71994;DHT22;59861;50.268;8.648;2023-02-26T16:29:19;16.90;53.90
71994;DHT22;59861;50.268;8.648;2023-02-26T16:31:47;16.90;54.20
71994;DHT22;59861;50.268;8.648;2023-02-26T16:34:27;16.90;54.20
71994;DHT22;59861;50.268;8.648;2023-02-26T16:36:55;16.90;54.30
71994;DHT22;59861;50.268;8.648;2023-02-26T16:39:26;16.90;54.40
71994;DHT22;59861;50.268;8.648;2023-02-26T16:42:07;17.00;54.40
71994;DHT22;59861;50.268;8.648;2023-02-26T16:46:59;16.90;54.40
71994;DHT22;59861;50.268;8.648;2023-02-26T16:49:30;17.00;54.50
71994;DHT22;59861;50.268;8.648;2023-02-26T16:51:57;17.00;55.20
71994;DHT22;59861;50.268;8.648;2023-02-26T16:54:26;17.00;54.60
71994;DHT22;59861;50.268;8.648;2023-02-26T16:57:02;17.00;54.00
71994;DHT22;59861;50.268;8.648;2023-02-26T16:59:25;17.00;54.60
71994;DHT22;59861;50.268;8.648;2023-02-26T17:01:58;17.10;54.90
71994;DHT22;59861;50.268;8.648;2023-02-26T17:04:30;17.10;54.80
71994;DHT22;59861;50.268;8.648;2023-02-26T17:06:57;17.10;54.80
71994;DHT22;59861;50.268;8.648;2023-02-26T17:09:26;17.20;54.80
71994;DHT22;59861;50.268;8.648;2023-02-26T17:12:02;17.20;54.80
71994;DHT22;59861;50.268;8.648;2023-02-26T17:14:23;17.20;54.70
71994;DHT22;59861;50.268;8.648;2023-02-26T17:16:50;17.20;55.60
71994;DHT22;59861;50.268;8.648;2023-02-26T17:19:17;17.30;55.00
71994;DHT22;59861;50.268;8.648;2023-02-26T17:21:46;17.30;55.10
71994;DHT22;59861;50.268;8.648;2023-02-26T17:24:20;17.40;55.20
71994;DHT22;59861;50.268;8.648;2023-02-26T17:26:47;17.40;55.00
71994;DHT22;59861;50.268;8.648;2023-02-26T17:29:16;17.40;55.00
71994;DHT22;59861;50.268;8.648;2023-02-26T17:31:42;17.40;55.00
71994;DHT22;59861;50.268;8.648;2023-02-26T17:34:10;17.50;55.10
71994;DHT22;59861;50.268;8.648;2023-02-26T17:36:38;17.50;55.10
71994;DHT22;59861;50.268;8.648;2023-02-26T17:39:04;17.60;55.10
71994;DHT22;59861;50.268;8.648;2023-02-26T17:41:31;17.60;54.80
71994;DHT22;59861;50.268;8.648;2023-02-26T17:43:59;17.80;54.80
71994;DHT22;59861;50.268;8.648;2023-02-26T17:46:25;17.80;54.60
71994;DHT22;59861;50.268;8.648;2023-02-26T17:48:52;17.70;54.40
71994;DHT22;59861;50.268;8.648;2023-02-26T17:51:19;17.50;54.20
71994;DHT22;59861;50.268;8.648;2023-02-26T17:53:46;17.40;53.80
71994;DHT22;59861;50.268;8.648;2023-02-26T17:56:20;17.30;53.80
71994;DHT22;59861;50.268;8.648;2023-02-26T17:58:45;17.30;53.70
71994;DHT22;59861;50.268;8.648;2023-02-26T18:01:11;17.20;53.70
71994;DHT22;59861;50.268;8.648;2023-02-26T18:03:38;17.20;53.50
71994;DHT22;59861;50.268;8.648;2023-02-26T18:06:05;17.20;53.50
71994;DHT22;59861;50.268;8.648;2023-02-26T18:08:33;17.20;53.50
71994;DHT22;59861;50.268;8.648;2023-02-26T18:11:00;17.20;53.50
71994;DHT22;59861;50.268;8.648;2023-02-26T18:13:28;17.20;53.00
71994;DHT22;59861;50.268;8.648;2023-02-26T18:15:56;17.10;52.90
71994;DHT22;59861;50.268;8.648;2023-02-26T18:18:24;17.00;53.00
71994;DHT22;59861;50.268;8.648;2023-02-26T18:20:51;17.00;53.00
71994;DHT22;59861;50.268;8.648;2023-02-26T18:23:18;17.00;53.00
71994;DHT22;59861;50.268;8.648;2023-02-26T18:25:46;17.00;53.10
71994;DHT22;59861;50.268;8.648;2023-02-26T18:28:15;17.00;53.10